メインページ
METAR-TAF:

METAR-TAF

空港 :

ヴィクトリア, マヘ島, セーシェル

セーシェル国際空港

緯度: 04-40S, 経度: 055-31E, 海抜: 3m

現時点の気象観測

当レポートは37分前の01:00(UTC)に作成
北/北西の風 9kt
気温 27°C
湿度 84%
気圧 1009 hPa
視程10km以上
高度1800ftの千切れ雲あり
高度2600ftの雲は散在している

METAR: FSIA 180100Z 33009KT 9999 BKN018 SCT026 27/24 Q1009 NOSIG

時間: 05:37 (01:37 UTC)

予報

当レポートは2時間24分前の23:13(UTC)に作成
予報は18日の 00時(UTC)から 18日の 24時(UTC)まで有効
北/北西の風 10kt
視程10km以上
高度2000ftの雲は散在している
確率 40% :
18日の 00時(UTC)から 18日の 06時(UTC)まで一時的に
高度1800ftの千切れ雲あり
弱いにわか雨
18日の 10時(UTC)から 18日の 12時(UTC)まで徐々に
北西の風 15kt

TAF: FSIA 172313Z 1800/1824 34010KT 9999 SCT020 PROB40 TEMPO 1800/1806 -SHRA BKN018 BECMG 1810/1812 32015KT

4,000以上の空港の気象観測と天気予報(METAR報とTAF報)

利用可能な観測所は地図上に黄色い丸と赤い丸で示す。

丸の上にカーソルを重ねると観測所名を参照できる。

次にクリックすると気象観測と天気予報を参照できる。

マップの切り替え:黒色「×」印の緑ボタンをクリックして拡大、「-」印の緑ボタンをクリックして縮小、緑色の三角印をクリックして隣りの地図に切り替え


METAR-TAF: